Bookmark and Share
Track history (hours):
 

Dong Gui 5

Last reported at 2014-Apr-08 06:09 UTC. Time now 2014-Apr-17 21:51 UTC.
Position N 21°59' E 113°07'.
Warning: this ship's position is 9 days out of date.

Length 62 m.

Type: Tanker. MMSI: 412500730.

NotesDate/timePositionNaut miles runAvg speedWind from/ knotsBaromVisibWave heightAir tempDewpointWater temp
2014-Apr-08 06:09N 21°59' E 113°07'5 8.3
2014-Apr-08 05:32N 21°55' E 113°10'2 0.1
2014-Apr-07 08:12N 21°53' E 113°13'2 1.9
2014-Apr-07 07:16N 21°54' E 113°11'0 0.0
2014-Apr-07 06:25N 21°54' E 113°11'0 0.1
2014-Apr-07 05:28N 21°54' E 113°11'4 4.3
2014-Apr-07 04:28N 21°57' E 113°08'0 0.0
2014-Apr-05 01:28N 21°58' E 113°08'6 0.3
2014-Apr-04 05:28N 21°53' E 113°13'9 9.0
2014-Apr-04 04:29N 21°60' E 113°06'1 0.0
2014-Apr-02 03:22N 21°59' E 113°07'7 8.5
2014-Apr-02 02:31N 21°53' E 113°12'1 0.1
2014-Apr-01 10:28N 21°53' E 113°13'2 2.6
2014-Apr-01 09:31N 21°53' E 113°11'0 0.0
2014-Apr-01 08:31N 21°53' E 113°11'0 0.1
2014-Apr-01 07:31N 21°53' E 113°11'0 0.0
2014-Apr-01 06:28N 21°53' E 113°11'0 0.0
2014-Apr-01 05:32N 21°53' E 113°11'0 0.0
2014-Apr-01 00:32N 21°53' E 113°11'0 0.0
2014-Mar-31 23:32N 21°53' E 113°11'0 0.0
2014-Mar-31 22:31N 21°53' E 113°11'0 0.0
2014-Mar-31 21:31N 21°53' E 113°11'0 0.0
2014-Mar-31 20:31N 21°53' E 113°11'0 0.0
2014-Mar-31 19:31N 21°53' E 113°11'0 0.0
2014-Mar-31 18:28N 21°53' E 113°11'0 0.1
2014-Mar-31 17:28N 21°53' E 113°11'0 0.0
2014-Mar-31 16:22N 21°53' E 113°11'0 0.0
2014-Mar-31 15:28N 21°53' E 113°11'0 0.1
2014-Mar-31 14:28N 21°53' E 113°11'0 0.0
2014-Mar-31 13:25N 21°53' E 113°11'4 4.2
2014-Mar-31 12:27N 21°57' E 113°09'  

Dump ship's entire track history

sailing weather and tide predictions

Dong Gui 5 — BMKF — position and weather